sensor_id;sensor_type;location;lat;lon;timestamp;pressure;altitude;pressure_sealevel;temperature;humidity
9690;BME280;4884;42.614;23.340;2024-02-26T00:00:29;92323.50;;;5.86;100.00
9690;BME280;4884;42.614;23.340;2024-02-26T00:02:55;92189.81;;;5.07;100.00
9690;BME280;4884;42.614;23.340;2024-02-26T00:05:21;92168.00;;;4.96;100.00
9690;BME280;4884;42.614;23.340;2024-02-26T00:07:46;92156.50;;;5.02;100.00
9690;BME280;4884;42.614;23.340;2024-02-26T00:10:13;92274.75;;;6.07;100.00
9690;BME280;4884;42.614;23.340;2024-02-26T00:12:38;92147.31;;;5.27;98.63
9690;BME280;4884;42.614;23.340;2024-02-26T00:15:05;92320.97;;;6.12;99.97
9690;BME280;4884;42.614;23.340;2024-02-26T00:17:31;92185.34;;;5.39;100.00
9690;BME280;4884;42.614;23.340;2024-02-26T00:19:56;92292.03;;;6.15;100.00
9690;BME280;4884;42.614;23.340;2024-02-26T00:22:21;92148.53;;;5.21;100.00
9690;BME280;4884;42.614;23.340;2024-02-26T00:24:47;92249.28;;;5.88;100.00
9690;BME280;4884;42.614;23.340;2024-02-26T00:27:12;92242.63;;;5.95;100.00
9690;BME280;4884;42.614;23.340;2024-02-26T00:29:38;92136.91;;;5.49;96.85
9690;BME280;4884;42.614;23.340;2024-02-26T00:32:03;92150.97;;;5.69;97.94
9690;BME280;4884;42.614;23.340;2024-02-26T00:34:29;92265.78;;;6.47;98.37
9690;BME280;4884;42.614;23.340;2024-02-26T00:36:54;92169.19;;;5.89;99.40
9690;BME280;4884;42.614;23.340;2024-02-26T00:39:19;92274.09;;;6.69;100.00
9690;BME280;4884;42.614;23.340;2024-02-26T00:41:45;92129.16;;;5.75;100.00
9690;BME280;4884;42.614;23.340;2024-02-26T00:44:10;92237.75;;;6.45;100.00
9690;BME280;4884;42.614;23.340;2024-02-26T00:46:36;92128.56;;;5.69;100.00
9690;BME280;4884;42.614;23.340;2024-02-26T00:49:02;92112.50;;;5.72;100.00
9690;BME280;4884;42.614;23.340;2024-02-26T00:51:28;92142.19;;;5.78;100.00
9690;BME280;4884;42.614;23.340;2024-02-26T00:53:54;92233.66;;;6.36;100.00
9690;BME280;4884;42.614;23.340;2024-02-26T00:56:21;92264.44;;;6.41;100.00
9690;BME280;4884;42.614;23.340;2024-02-26T00:58:47;92260.91;;;6.54;100.00
9690;BME280;4884;42.614;23.340;2024-02-26T01:01:12;92126.44;;;5.88;99.77
9690;BME280;4884;42.614;23.340;2024-02-26T01:03:37;92244.97;;;6.69;100.00
9690;BME280;4884;42.614;23.340;2024-02-26T01:06:03;92104.94;;;5.84;100.00
9690;BME280;4884;42.614;23.340;2024-02-26T01:08:28;92112.97;;;5.66;100.00
9690;BME280;4884;42.614;23.340;2024-02-26T01:10:54;92237.59;;;6.42;100.00
9690;BME280;4884;42.614;23.340;2024-02-26T01:13:19;92128.72;;;5.73;100.00
9690;BME280;4884;42.614;23.340;2024-02-26T01:15:45;92238.94;;;6.48;100.00
9690;BME280;4884;42.614;23.340;2024-02-26T01:18:11;92247.91;;;6.42;100.00
9690;BME280;4884;42.614;23.340;2024-02-26T01:20:37;92185.38;;;6.07;100.00
9690;BME280;4884;42.614;23.340;2024-02-26T01:23:02;92086.50;;;5.48;100.00
9690;BME280;4884;42.614;23.340;2024-02-26T01:25:27;92095.41;;;5.59;100.00
9690;BME280;4884;42.614;23.340;2024-02-26T01:27:53;92250.28;;;6.72;100.00
9690;BME280;4884;42.614;23.340;2024-02-26T01:30:18;92224.81;;;6.54;100.00
9690;BME280;4884;42.614;23.340;2024-02-26T01:32:44;92220.31;;;6.51;100.00
9690;BME280;4884;42.614;23.340;2024-02-26T01:35:09;92208.47;;;6.50;100.00
9690;BME280;4884;42.614;23.340;2024-02-26T01:37:37;92241.34;;;6.70;100.00
9690;BME280;4884;42.614;23.340;2024-02-26T01:40:02;92192.75;;;6.26;100.00
9690;BME280;4884;42.614;23.340;2024-02-26T01:42:32;92229.81;;;6.67;100.00
9690;BME280;4884;42.614;23.340;2024-02-26T01:44:58;92109.63;;;5.82;100.00
9690;BME280;4884;42.614;23.340;2024-02-26T01:47:23;92246.19;;;6.63;100.00
9690;BME280;4884;42.614;23.340;2024-02-26T01:49:50;92092.38;;;5.66;100.00
9690;BME280;4884;42.614;23.340;2024-02-26T01:52:16;92082.66;;;5.80;100.00
9690;BME280;4884;42.614;23.340;2024-02-26T01:54:45;92217.09;;;6.54;100.00
9690;BME280;4884;42.614;23.340;2024-02-26T01:57:11;92224.47;;;6.81;100.00
9690;BME280;4884;42.614;23.340;2024-02-26T01:59:39;92069.91;;;5.83;100.00
9690;BME280;4884;42.614;23.340;2024-02-26T02:02:07;92222.91;;;6.89;100.00
9690;BME280;4884;42.614;23.340;2024-02-26T02:04:35;92198.00;;;6.55;100.00
9690;BME280;4884;42.614;23.340;2024-02-26T02:07:01;92107.53;;;5.84;100.00
9690;BME280;4884;42.614;23.340;2024-02-26T02:09:27;92243.13;;;6.78;100.00
9690;BME280;4884;42.614;23.340;2024-02-26T02:11:53;92206.28;;;6.69;100.00
9690;BME280;4884;42.614;23.340;2024-02-26T02:14:19;92153.13;;;6.47;100.00
9690;BME280;4884;42.614;23.340;2024-02-26T02:16:44;92056.50;;;5.69;100.00
9690;BME280;4884;42.614;23.340;2024-02-26T02:19:10;92247.06;;;6.75;100.00
9690;BME280;4884;42.614;23.340;2024-02-26T02:21:35;92082.66;;;5.80;100.00
9690;BME280;4884;42.614;23.340;2024-02-26T02:24:00;92092.50;;;5.78;100.00
9690;BME280;4884;42.614;23.340;2024-02-26T02:26:26;92135.97;;;6.14;100.00
9690;BME280;4884;42.614;23.340;2024-02-26T02:28:51;92241.50;;;6.65;100.00
9690;BME280;4884;42.614;23.340;2024-02-26T02:31:18;92086.59;;;5.77;100.00
9690;BME280;4884;42.614;23.340;2024-02-26T02:33:43;92058.94;;;5.49;100.00
9690;BME280;4884;42.614;23.340;2024-02-26T02:36:09;92144.31;;;6.02;100.00
9690;BME280;4884;42.614;23.340;2024-02-26T02:38:38;92222.56;;;6.52;100.00
9690;BME280;4884;42.614;23.340;2024-02-26T02:41:13;92076.44;;;5.72;100.00
9690;BME280;4884;42.614;23.340;2024-02-26T02:43:38;92082.06;;;5.66;100.00
9690;BME280;4884;42.614;23.340;2024-02-26T02:46:04;92097.69;;;5.69;100.00
9690;BME280;4884;42.614;23.340;2024-02-26T02:48:29;92196.38;;;6.33;100.00
9690;BME280;4884;42.614;23.340;2024-02-26T02:50:55;92241.63;;;6.60;100.00
9690;BME280;4884;42.614;23.340;2024-02-26T02:53:21;92212.97;;;6.70;100.00
9690;BME280;4884;42.614;23.340;2024-02-26T02:55:46;92220.97;;;6.86;100.00
9690;BME280;4884;42.614;23.340;2024-02-26T02:58:11;92159.66;;;6.45;100.00
9690;BME280;4884;42.614;23.340;2024-02-26T03:00:37;92220.97;;;6.86;100.00
9690;BME280;4884;42.614;23.340;2024-02-26T03:03:02;92094.75;;;5.96;100.00
9690;BME280;4884;42.614;23.340;2024-02-26T03:05:27;92254.16;;;6.87;100.00
9690;BME280;4884;42.614;23.340;2024-02-26T03:07:53;92220.69;;;6.70;100.00
9690;BME280;4884;42.614;23.340;2024-02-26T03:10:18;92124.75;;;6.01;100.00
9690;BME280;4884;42.614;23.340;2024-02-26T03:12:44;92107.91;;;6.12;99.99
9690;BME280;4884;42.614;23.340;2024-02-26T03:15:09;92137.09;;;6.42;98.60
9690;BME280;4884;42.614;23.340;2024-02-26T03:17:36;92101.97;;;6.29;97.36
9690;BME280;4884;42.614;23.340;2024-02-26T03:20:01;92077.66;;;6.00;99.46
9690;BME280;4884;42.614;23.340;2024-02-26T03:22:29;92218.38;;;6.86;100.00
9690;BME280;4884;42.614;23.340;2024-02-26T03:24:55;92090.97;;;6.02;100.00
9690;BME280;4884;42.614;23.340;2024-02-26T03:27:20;92225.97;;;6.82;100.00
9690;BME280;4884;42.614;23.340;2024-02-26T03:29:45;92091.28;;;5.92;100.00
9690;BME280;4884;42.614;23.340;2024-02-26T03:32:11;92204.78;;;6.68;100.00
9690;BME280;4884;42.614;23.340;2024-02-26T03:34:36;92174.06;;;6.46;100.00
9690;BME280;4884;42.614;23.340;2024-02-26T03:37:04;92214.81;;;6.61;100.00
9690;BME280;4884;42.614;23.340;2024-02-26T03:39:30;92172.09;;;6.43;100.00
9690;BME280;4884;42.614;23.340;2024-02-26T03:41:56;92183.03;;;6.40;100.00
9690;BME280;4884;42.614;23.340;2024-02-26T03:44:21;92211.31;;;6.65;100.00
9690;BME280;4884;42.614;23.340;2024-02-26T03:46:46;92052.56;;;5.63;100.00
9690;BME280;4884;42.614;23.340;2024-02-26T03:49:12;92164.81;;;6.45;100.00
9690;BME280;4884;42.614;23.340;2024-02-26T03:51:38;92208.47;;;6.50;99.73
9690;BME280;4884;42.614;23.340;2024-02-26T03:54:04;92201.03;;;6.57;99.71
9690;BME280;4884;42.614;23.340;2024-02-26T03:56:29;92211.63;;;6.64;98.82
9690;BME280;4884;42.614;23.340;2024-02-26T03:58:54;92069.81;;;5.71;98.36
9690;BME280;4884;42.614;23.340;2024-02-26T04:01:20;92171.78;;;6.53;99.41
9690;BME280;4884;42.614;23.340;2024-02-26T04:03:45;92064.03;;;5.83;98.53
9690;BME280;4884;42.614;23.340;2024-02-26T04:06:11;92198.59;;;6.52;99.01
9690;BME280;4884;42.614;23.340;2024-02-26T04:08:39;92076.31;;;5.69;99.04
9690;BME280;4884;42.614;23.340;2024-02-26T04:11:05;92219.69;;;6.54;99.57
9690;BME280;4884;42.614;23.340;2024-02-26T04:13:33;92197.56;;;6.44;100.00
9690;BME280;4884;42.614;23.340;2024-02-26T04:15:58;92171.81;;;6.27;100.00
9690;BME280;4884;42.614;23.340;2024-02-26T04:18:24;92190.75;;;6.40;100.00
9690;BME280;4884;42.614;23.340;2024-02-26T04:20:49;92185.00;;;6.34;100.00
9690;BME280;4884;42.614;23.340;2024-02-26T04:23:16;92146.25;;;6.14;100.00
9690;BME280;4884;42.614;23.340;2024-02-26T04:25:42;92176.78;;;6.41;100.00
9690;BME280;4884;42.614;23.340;2024-02-26T04:28:07;92168.00;;;6.50;98.08
9690;BME280;4884;42.614;23.340;2024-02-26T04:30:32;92198.16;;;6.50;98.82
9690;BME280;4884;42.614;23.340;2024-02-26T04:32:58;92039.09;;;5.58;99.18
9690;BME280;4884;42.614;23.340;2024-02-26T04:35:23;92182.38;;;6.51;100.00
9690;BME280;4884;42.614;23.340;2024-02-26T04:37:49;92187.56;;;6.43;100.00
9690;BME280;4884;42.614;23.340;2024-02-26T04:40:14;92153.22;;;6.22;100.00
9690;BME280;4884;42.614;23.340;2024-02-26T04:42:40;92149.72;;;6.26;100.00
9690;BME280;4884;42.614;23.340;2024-02-26T04:45:06;91987.84;;;5.27;100.00
9690;BME280;4884;42.614;23.340;2024-02-26T04:47:32;92016.41;;;5.43;98.72
9690;BME280;4884;42.614;23.340;2024-02-26T04:49:58;92168.78;;;6.34;99.35
9690;BME280;4884;42.614;23.340;2024-02-26T04:52:23;92042.91;;;5.52;99.47
9690;BME280;4884;42.614;23.340;2024-02-26T04:54:48;92146.41;;;6.17;100.00
9690;BME280;4884;42.614;23.340;2024-02-26T04:57:14;92040.47;;;5.38;100.00
9690;BME280;4884;42.614;23.340;2024-02-26T04:59:39;92093.88;;;5.75;100.00
9690;BME280;4884;42.614;23.340;2024-02-26T05:02:06;92057.25;;;5.53;99.85
9690;BME280;4884;42.614;23.340;2024-02-26T05:04:31;92055.16;;;5.46;100.00
9690;BME280;4884;42.614;23.340;2024-02-26T05:06:56;92202.28;;;6.34;100.00
9690;BME280;4884;42.614;23.340;2024-02-26T05:09:22;92059.41;;;5.33;100.00
9690;BME280;4884;42.614;23.340;2024-02-26T05:11:47;92206.22;;;6.23;100.00
9690;BME280;4884;42.614;23.340;2024-02-26T05:14:12;92164.03;;;5.89;100.00
9690;BME280;4884;42.614;23.340;2024-02-26T05:16:38;92221.69;;;6.40;100.00
9690;BME280;4884;42.614;23.340;2024-02-26T05:19:03;92120.22;;;5.72;100.00
9690;BME280;4884;42.614;23.340;2024-02-26T05:21:29;92074.38;;;5.40;100.00
9690;BME280;4884;42.614;23.340;2024-02-26T05:23:54;92208.38;;;6.21;100.00
9690;BME280;4884;42.614;23.340;2024-02-26T05:26:23;92237.28;;;6.43;100.00
9690;BME280;4884;42.614;23.340;2024-02-26T05:28:48;92088.91;;;5.53;100.00
9690;BME280;4884;42.614;23.340;2024-02-26T05:31:14;92094.34;;;5.60;100.00
9690;BME280;4884;42.614;23.340;2024-02-26T05:33:40;92079.25;;;5.50;100.00
9690;BME280;4884;42.614;23.340;2024-02-26T05:36:06;92232.91;;;6.44;100.00
9690;BME280;4884;42.614;23.340;2024-02-26T05:38:31;92091.63;;;5.65;100.00
9690;BME280;4884;42.614;23.340;2024-02-26T05:40:59;92122.81;;;5.81;100.00
9690;BME280;4884;42.614;23.340;2024-02-26T05:43:25;92232.56;;;6.54;100.00
9690;BME280;4884;42.614;23.340;2024-02-26T05:45:51;92148.97;;;6.17;100.00
9690;BME280;4884;42.614;23.340;2024-02-26T05:48:17;92232.47;;;6.79;97.50
9690;BME280;4884;42.614;23.340;2024-02-26T05:50:44;92115.81;;;5.98;96.32
9690;BME280;4884;42.614;23.340;2024-02-26T05:53:09;92186.31;;;6.49;96.83
9690;BME280;4884;42.614;23.340;2024-02-26T05:55:35;92223.72;;;6.72;97.96
9690;BME280;4884;42.614;23.340;2024-02-26T05:58:00;92213.56;;;6.67;99.94
9690;BME280;4884;42.614;23.340;2024-02-26T06:00:26;92256.16;;;6.81;99.88
9690;BME280;4884;42.614;23.340;2024-02-26T06:02:51;92265.38;;;6.91;97.60
9690;BME280;4884;42.614;23.340;2024-02-26T06:05:17;92116.56;;;5.99;96.96
9690;BME280;4884;42.614;23.340;2024-02-26T06:07:42;92229.78;;;6.76;98.07
9690;BME280;4884;42.614;23.340;2024-02-26T06:10:07;92254.50;;;6.86;98.88
9690;BME280;4884;42.614;23.340;2024-02-26T06:12:35;92256.78;;;6.78;100.00
9690;BME280;4884;42.614;23.340;2024-02-26T06:15:01;92124.63;;;5.97;100.00
9690;BME280;4884;42.614;23.340;2024-02-26T06:17:26;92257.66;;;6.91;100.00
9690;BME280;4884;42.614;23.340;2024-02-26T06:19:52;92150.47;;;6.27;100.00
9690;BME280;4884;42.614;23.340;2024-02-26T06:22:18;92255.19;;;6.95;100.00
9690;BME280;4884;42.614;23.340;2024-02-26T06:24:43;92193.28;;;6.57;100.00
9690;BME280;4884;42.614;23.340;2024-02-26T06:27:08;92105.97;;;6.09;100.00
9690;BME280;4884;42.614;23.340;2024-02-26T06:29:34;92288.66;;;7.20;100.00
9690;BME280;4884;42.614;23.340;2024-02-26T06:31:59;92242.72;;;7.05;100.00
9690;BME280;4884;42.614;23.340;2024-02-26T06:34:24;92115.03;;;6.15;100.00
9690;BME280;4884;42.614;23.340;2024-02-26T06:36:50;92108.34;;;6.14;100.00
9690;BME280;4884;42.614;23.340;2024-02-26T06:39:15;92040.88;;;5.66;100.00
9690;BME280;4884;42.614;23.340;2024-02-26T06:41:41;92120.03;;;6.12;100.00
9690;BME280;4884;42.614;23.340;2024-02-26T06:44:06;92139.84;;;6.28;100.00
9690;BME280;4884;42.614;23.340;2024-02-26T06:46:32;92130.34;;;6.12;100.00
9690;BME280;4884;42.614;23.340;2024-02-26T06:48:57;92131.09;;;6.12;100.00
9690;BME280;4884;42.614;23.340;2024-02-26T06:51:23;92237.91;;;6.95;100.00
9690;BME280;4884;42.614;23.340;2024-02-26T06:53:49;92209.41;;;6.92;100.00
9690;BME280;4884;42.614;23.340;2024-02-26T06:56:14;92258.41;;;7.29;100.00
9690;BME280;4884;42.614;23.340;2024-02-26T06:58:40;92204.13;;;7.17;100.00
9690;BME280;4884;42.614;23.340;2024-02-26T07:01:05;92223.63;;;7.35;100.00
9690;BME280;4884;42.614;23.340;2024-02-26T07:03:33;92270.50;;;7.67;100.00
9690;BME280;4884;42.614;23.340;2024-02-26T07:05:58;92255.81;;;7.58;100.00
9690;BME280;4884;42.614;23.340;2024-02-26T07:08:24;92290.91;;;7.60;100.00
9690;BME280;4884;42.614;23.340;2024-02-26T07:10:49;92244.47;;;7.51;100.00
9690;BME280;4884;42.614;23.340;2024-02-26T07:13:14;92126.59;;;6.47;100.00
9690;BME280;4884;42.614;23.340;2024-02-26T07:15:40;92246.09;;;7.35;100.00
9690;BME280;4884;42.614;23.340;2024-02-26T07:18:05;92271.88;;;7.35;100.00
9690;BME280;4884;42.614;23.340;2024-02-26T07:20:31;92265.84;;;7.31;100.00
9690;BME280;4884;42.614;23.340;2024-02-26T07:22:57;92161.56;;;6.65;100.00
9690;BME280;4884;42.614;23.340;2024-02-26T07:25:22;92262.06;;;7.57;100.00
9690;BME280;4884;42.614;23.340;2024-02-26T07:27:49;92132.50;;;6.85;98.92
9690;BME280;4884;42.614;23.340;2024-02-26T07:30:15;92265.16;;;7.72;98.99
9690;BME280;4884;42.614;23.340;2024-02-26T07:32:42;92282.78;;;7.99;98.05
9690;BME280;4884;42.614;23.340;2024-02-26T07:35:07;92252.88;;;7.89;96.13
9690;BME280;4884;42.614;23.340;2024-02-26T07:37:33;92138.38;;;7.44;95.33
9690;BME280;4884;42.614;23.340;2024-02-26T07:39:58;92280.91;;;8.49;94.05
9690;BME280;4884;42.614;23.340;2024-02-26T07:42:23;92137.41;;;7.69;94.52
9690;BME280;4884;42.614;23.340;2024-02-26T07:44:49;92293.06;;;8.81;93.28
9690;BME280;4884;42.614;23.340;2024-02-26T07:47:15;92266.53;;;8.72;91.24
9690;BME280;4884;42.614;23.340;2024-02-26T07:49:40;92265.53;;;8.65;86.84
9690;BME280;4884;42.614;23.340;2024-02-26T07:52:06;92149.88;;;8.20;87.57
9690;BME280;4884;42.614;23.340;2024-02-26T07:54:31;92123.22;;;8.28;79.89
9690;BME280;4884;42.614;23.340;2024-02-26T07:56:57;92268.13;;;9.34;77.30
9690;BME280;4884;42.614;23.340;2024-02-26T07:59:22;92272.56;;;9.57;80.05
9690;BME280;4884;42.614;23.340;2024-02-26T08:01:51;92133.41;;;8.58;75.92
9690;BME280;4884;42.614;23.340;2024-02-26T08:04:17;92116.25;;;8.53;79.10
9690;BME280;4884;42.614;23.340;2024-02-26T08:06:42;92271.59;;;9.50;79.47
9690;BME280;4884;42.614;23.340;2024-02-26T08:09:08;92287.16;;;9.74;78.67
9690;BME280;4884;42.614;23.340;2024-02-26T08:11:33;92256.28;;;9.45;76.50
9690;BME280;4884;42.614;23.340;2024-02-26T08:13:59;92156.91;;;8.77;78.50
9690;BME280;4884;42.614;23.340;2024-02-26T08:16:24;92104.38;;;8.52;76.63
9690;BME280;4884;42.614;23.340;2024-02-26T08:18:50;92275.91;;;9.46;75.49
9690;BME280;4884;42.614;23.340;2024-02-26T08:21:15;92128.13;;;8.78;77.03
9690;BME280;4884;42.614;23.340;2024-02-26T08:23:43;92123.81;;;8.70;74.94
9690;BME280;4884;42.614;23.340;2024-02-26T08:26:08;92145.06;;;8.88;78.62
9690;BME280;4884;42.614;23.340;2024-02-26T08:28:37;92280.94;;;10.03;81.88
9690;BME280;4884;42.614;23.340;2024-02-26T08:31:02;92167.56;;;9.36;77.30
9690;BME280;4884;42.614;23.340;2024-02-26T08:33:28;92234.69;;;9.53;84.15
9690;BME280;4884;42.614;23.340;2024-02-26T08:35:53;92272.78;;;9.40;88.71
9690;BME280;4884;42.614;23.340;2024-02-26T08:38:19;92148.81;;;8.66;84.31
9690;BME280;4884;42.614;23.340;2024-02-26T08:40:44;92140.63;;;8.76;79.24
9690;BME280;4884;42.614;23.340;2024-02-26T08:43:10;92188.59;;;9.46;78.59
9690;BME280;4884;42.614;23.340;2024-02-26T08:45:35;92140.19;;;9.23;75.73
9690;BME280;4884;42.614;23.340;2024-02-26T08:48:00;92097.38;;;9.13;77.31
9690;BME280;4884;42.614;23.340;2024-02-26T08:50:26;92120.03;;;9.28;82.29
9690;BME280;4884;42.614;23.340;2024-02-26T08:52:51;92138.88;;;9.29;84.12
9690;BME280;4884;42.614;23.340;2024-02-26T08:55:18;92244.53;;;10.11;79.63
9690;BME280;4884;42.614;23.340;2024-02-26T08:57:43;92123.91;;;9.10;84.49
9690;BME280;4884;42.614;23.340;2024-02-26T09:00:09;92251.03;;;10.17;85.91
9690;BME280;4884;42.614;23.340;2024-02-26T09:02:35;92128.72;;;9.36;86.08
9690;BME280;4884;42.614;23.340;2024-02-26T09:05:00;92231.94;;;9.98;82.99
9690;BME280;4884;42.614;23.340;2024-02-26T09:07:25;92259.59;;;9.81;86.32
9690;BME280;4884;42.614;23.340;2024-02-26T09:09:51;92248.59;;;9.72;85.66
9690;BME280;4884;42.614;23.340;2024-02-26T09:12:16;92101.38;;;8.98;84.67
9690;BME280;4884;42.614;23.340;2024-02-26T09:14:41;92090.72;;;9.52;82.32
9690;BME280;4884;42.614;23.340;2024-02-26T09:17:07;92216.75;;;10.24;81.03
9690;BME280;4884;42.614;23.340;2024-02-26T09:19:32;92219.69;;;10.10;80.14
9690;BME280;4884;42.614;23.340;2024-02-26T09:21:58;92091.78;;;9.51;79.04
9690;BME280;4884;42.614;23.340;2024-02-26T09:24:24;92111.59;;;9.71;81.25
9690;BME280;4884;42.614;23.340;2024-02-26T09:26:50;92249.31;;;10.65;81.51
9690;BME280;4884;42.614;23.340;2024-02-26T09:29:15;92164.38;;;10.06;80.67
9690;BME280;4884;42.614;23.340;2024-02-26T09:31:41;92151.97;;;10.12;81.67
9690;BME280;4884;42.614;23.340;2024-02-26T09:34:07;92242.75;;;10.83;79.56
9690;BME280;4884;42.614;23.340;2024-02-26T09:36:33;92194.59;;;10.70;79.01
9690;BME280;4884;42.614;23.340;2024-02-26T09:38:58;92240.31;;;10.74;79.76
9690;BME280;4884;42.614;23.340;2024-02-26T09:41:27;92105.09;;;9.77;79.42
9690;BME280;4884;42.614;23.340;2024-02-26T09:43:55;92102.88;;;9.91;78.46
9690;BME280;4884;42.614;23.340;2024-02-26T09:46:21;92241.41;;;10.89;78.47
9690;BME280;4884;42.614;23.340;2024-02-26T09:48:47;92119.69;;;9.97;76.34
9690;BME280;4884;42.614;23.340;2024-02-26T09:51:14;92113.38;;;10.10;77.78
9690;BME280;4884;42.614;23.340;2024-02-26T09:53:43;92233.53;;;11.01;75.33
9690;BME280;4884;42.614;23.340;2024-02-26T09:56:09;92271.09;;;11.19;76.81
9690;BME280;4884;42.614;23.340;2024-02-26T09:58:36;92221.59;;;10.96;76.22
9690;BME280;4884;42.614;23.340;2024-02-26T10:01:06;92134.75;;;10.94;75.02
9690;BME280;4884;42.614;23.340;2024-02-26T10:03:43;92092.78;;;10.45;75.38
9690;BME280;4884;42.614;23.340;2024-02-26T10:06:10;92114.72;;;10.63;72.69
9690;BME280;4884;42.614;23.340;2024-02-26T10:08:36;92121.50;;;10.68;71.68
9690;BME280;4884;42.614;23.340;2024-02-26T10:11:06;92230.94;;;11.63;71.72
9690;BME280;4884;42.614;23.340;2024-02-26T10:13:32;92235.22;;;11.56;72.65
9690;BME280;4884;42.614;23.340;2024-02-26T10:15:58;92243.34;;;11.54;72.68
9690;BME280;4884;42.614;23.340;2024-02-26T10:18:24;92232.59;;;11.56;67.83
9690;BME280;4884;42.614;23.340;2024-02-26T10:21:03;92103.75;;;10.70;68.69
9690;BME280;4884;42.614;23.340;2024-02-26T10:23:29;92226.09;;;11.46;68.89
9690;BME280;4884;42.614;23.340;2024-02-26T10:25:55;92080.91;;;10.60;69.21
9690;BME280;4884;42.614;23.340;2024-02-26T10:28:20;92193.97;;;11.54;66.79
9690;BME280;4884;42.614;23.340;2024-02-26T10:30:46;92080.75;;;10.52;69.28
9690;BME280;4884;42.614;23.340;2024-02-26T10:33:12;92191.91;;;11.44;68.65
9690;BME280;4884;42.614;23.340;2024-02-26T10:35:39;92204.72;;;11.37;70.03
9690;BME280;4884;42.614;23.340;2024-02-26T10:38:06;92070.88;;;10.58;69.29
9690;BME280;4884;42.614;23.340;2024-02-26T10:40:32;92217.75;;;11.87;68.68
9690;BME280;4884;42.614;23.340;2024-02-26T10:42:58;92197.16;;;11.63;68.40
9690;BME280;4884;42.614;23.340;2024-02-26T10:45:23;92189.31;;;11.44;68.94
9690;BME280;4884;42.614;23.340;2024-02-26T10:47:48;92190.28;;;11.55;69.68
9690;BME280;4884;42.614;23.340;2024-02-26T10:50:14;92084.00;;;10.81;64.92
9690;BME280;4884;42.614;23.340;2024-02-26T10:52:42;92180.06;;;11.47;65.54
9690;BME280;4884;42.614;23.340;2024-02-26T10:55:08;92188.53;;;11.44;65.94
9690;BME280;4884;42.614;23.340;2024-02-26T10:57:39;92073.44;;;10.89;66.33
9690;BME280;4884;42.614;23.340;2024-02-26T11:00:06;92066.09;;;10.76;65.79
9690;BME280;4884;42.614;23.340;2024-02-26T11:02:35;92097.69;;;10.97;65.61
9690;BME280;4884;42.614;23.340;2024-02-26T11:05:05;92189.94;;;11.57;66.63
9690;BME280;4884;42.614;23.340;2024-02-26T11:07:32;92205.53;;;11.72;66.68
9690;BME280;4884;42.614;23.340;2024-02-26T11:10:01;92061.66;;;10.76;67.26
9690;BME280;4884;42.614;23.340;2024-02-26T11:12:32;92215.53;;;11.70;70.06
9690;BME280;4884;42.614;23.340;2024-02-26T11:14:57;92209.97;;;11.72;69.47
9690;BME280;4884;42.614;23.340;2024-02-26T11:17:27;92115.44;;;11.10;69.67
9690;BME280;4884;42.614;23.340;2024-02-26T11:19:56;92100.06;;;11.02;65.57
9690;BME280;4884;42.614;23.340;2024-02-26T11:22:23;92089.78;;;10.90;66.90
9690;BME280;4884;42.614;23.340;2024-02-26T11:24:52;92079.22;;;10.98;65.96
9690;BME280;4884;42.614;23.340;2024-02-26T11:27:19;92153.00;;;11.48;67.27
9690;BME280;4884;42.614;23.340;2024-02-26T11:29:50;92043.31;;;10.85;65.21
9690;BME280;4884;42.614;23.340;2024-02-26T11:32:17;92072.22;;;11.18;63.81
9690;BME280;4884;42.614;23.340;2024-02-26T11:34:43;92194.31;;;11.68;65.09
9690;BME280;4884;42.614;23.340;2024-02-26T11:37:14;92190.19;;;11.67;66.82
9690;BME280;4884;42.614;23.340;2024-02-26T11:39:45;92168.13;;;11.77;65.22
9690;BME280;4884;42.614;23.340;2024-02-26T11:42:14;92057.56;;;11.10;66.04
9690;BME280;4884;42.614;23.340;2024-02-26T11:44:40;92040.91;;;11.11;66.10
9690;BME280;4884;42.614;23.340;2024-02-26T11:47:22;92154.53;;;11.83;69.31
9690;BME280;4884;42.614;23.340;2024-02-26T11:49:48;92051.09;;;10.85;67.97
9690;BME280;4884;42.614;23.340;2024-02-26T11:52:15;92188.88;;;11.92;66.60
9690;BME280;4884;42.614;23.340;2024-02-26T11:57:22;92162.59;;;11.78;67.96
9690;BME280;4884;42.614;23.340;2024-02-26T11:59:48;92066.88;;;11.11;67.37
9690;BME280;4884;42.614;23.340;2024-02-26T12:05:19;92202.31;;;11.94;66.55
9690;BME280;4884;42.614;23.340;2024-02-26T12:07:46;92060.09;;;11.06;64.16
9690;BME280;4884;42.614;23.340;2024-02-26T12:12:41;92131.75;;;11.96;62.80
9690;BME280;4884;42.614;23.340;2024-02-26T12:15:08;92156.41;;;12.44;61.00
9690;BME280;4884;42.614;23.340;2024-02-26T12:17:34;92150.75;;;12.38;58.99
9690;BME280;4884;42.614;23.340;2024-02-26T12:20:10;92179.31;;;13.22;58.29
9690;BME280;4884;42.614;23.340;2024-02-26T12:22:38;92113.56;;;12.60;56.81
9690;BME280;4884;42.614;23.340;2024-02-26T12:25:04;92202.84;;;13.25;55.83
9690;BME280;4884;42.614;23.340;2024-02-26T12:27:31;92161.19;;;12.61;60.49
9690;BME280;4884;42.614;23.340;2024-02-26T12:29:56;92180.97;;;12.65;59.66
9690;BME280;4884;42.614;23.340;2024-02-26T12:32:23;92189.13;;;13.06;57.45
9690;BME280;4884;42.614;23.340;2024-02-26T12:34:49;92066.78;;;13.13;54.38
9690;BME280;4884;42.614;23.340;2024-02-26T12:37:15;92182.91;;;13.63;55.15
9690;BME280;4884;42.614;23.340;2024-02-26T12:39:41;92076.28;;;12.53;55.46
9690;BME280;4884;42.614;23.340;2024-02-26T12:42:07;92212.31;;;13.63;53.99
9690;BME280;4884;42.614;23.340;2024-02-26T12:44:32;92166.03;;;14.12;52.81
9690;BME280;4884;42.614;23.340;2024-02-26T12:47:02;92218.69;;;13.66;52.84
9690;BME280;4884;42.614;23.340;2024-02-26T12:49:31;92212.72;;;13.91;53.74
9690;BME280;4884;42.614;23.340;2024-02-26T12:51:56;92054.47;;;12.87;56.04
9690;BME280;4884;42.614;23.340;2024-02-26T12:54:32;92055.09;;;12.77;54.00
9690;BME280;4884;42.614;23.340;2024-02-26T12:56:59;92192.63;;;13.39;54.00
9690;BME280;4884;42.614;23.340;2024-02-26T12:59:26;92041.66;;;12.30;55.78
9690;BME280;4884;42.614;23.340;2024-02-26T13:01:51;92184.16;;;12.78;55.62
9690;BME280;4884;42.614;23.340;2024-02-26T13:04:17;92191.94;;;12.97;55.92
9690;BME280;4884;42.614;23.340;2024-02-26T13:06:43;92175.59;;;12.36;57.00
9690;BME280;4884;42.614;23.340;2024-02-26T13:09:12;92078.72;;;11.81;57.07
9690;BME280;4884;42.614;23.340;2024-02-26T13:11:40;92168.56;;;12.59;55.77
9690;BME280;4884;42.614;23.340;2024-02-26T13:14:05;92175.13;;;12.72;55.82
9690;BME280;4884;42.614;23.340;2024-02-26T13:16:31;92092.88;;;12.26;55.92